Silver Lake, Massachusetts
Current Conditions -  °F | °C
As of 5:52 AM on Thursday 27 Nov 2014 (Local Time) from KPYM Reporting Station
Overcast Overcast  
Wind Chill: 28°   Ceiling: 2500
Heat Index: 34°   Visibility: 10mi
Dew Point: 32°   Wind: 7mph
Humidity: 92%   Direction: 320°NW
Pressure: 29.81"   Gusts: NA
Location:  41.9862°N, 70.748°W
Report Text: KPYM 271052Z AUTO 32006KT 10SM FEW013 OVC025 01/00 A2981 RMK AO2 SLP094 T00110000
Loading
Personal Weather Stations






























Interactive Weather Map New forecast layout! Learn more

10-Day Weather Forecast

Advertisements
Track Severe Weather on mobile